Time;durP1;ratioP1;P1;durP2;ratioP2;P2;SDS_P1;SDS_P2;PMS_P1;PMS_P2;Temp;Humidity;BMP_temperature;BMP_pressure;BME280_temperature;BME280_humidity;BME280_pressure;Samples;Min_cycle;Max_cycle;Signal;HPM_P1;HPM_P2
2023/03/30 00:01:47;;;;;;;15.03;3.27;;;11.80;67.10;;;;;;5030931;28;20180;-56
2023/03/30 00:04:13;;;;;;;11.33;3.80;;;11.80;67.20;;;;;;5027803;28;20461;-57
2023/03/30 00:06:41;;;;;;;12.97;3.30;;;11.90;67.40;;;;;;5031406;28;20215;-57
2023/03/30 00:09:06;;;;;;;13.30;3.83;;;11.80;67.30;;;;;;5033265;28;20542;-56
2023/03/30 00:11:33;;;;;;;30.50;4.20;;;11.90;67.30;;;;;;5028936;28;20432;-56
2023/03/30 00:13:59;;;;;;;8.43;2.90;;;11.90;67.70;;;;;;5030240;28;20743;-58
2023/03/30 00:16:26;;;;;;;11.87;3.60;;;11.90;67.10;;;;;;5029133;28;21180;-57
2023/03/30 00:18:51;;;;;;;15.33;3.70;;;11.90;67.30;;;;;;5033706;28;20553;-57
2023/03/30 00:21:19;;;;;;;14.07;4.20;;;11.90;67.80;;;;;;5033441;28;20837;-56
2023/03/30 00:23:48;;;;;;;12.53;3.20;;;11.80;68.00;;;;;;5032557;28;20223;-56
2023/03/30 00:26:14;;;;;;;10.70;3.40;;;11.80;68.40;;;;;;5028887;28;20695;-57
2023/03/30 00:28:40;;;;;;;14.63;3.23;;;11.80;69.10;;;;;;5028439;28;20459;-56
2023/03/30 00:31:06;;;;;;;16.70;3.50;;;11.70;69.60;;;;;;5029295;28;20442;-57
2023/03/30 00:33:31;;;;;;;7.33;3.37;;;11.70;70.20;;;;;;5029797;28;20188;-57
2023/03/30 00:35:57;;;;;;;15.90;3.60;;;11.60;70.50;;;;;;5034664;28;20438;-57
2023/03/30 00:38:24;;;;;;;14.00;3.93;;;11.60;70.70;;;;;;5031444;28;20840;-56
2023/03/30 00:40:52;;;;;;;16.60;3.97;;;11.50;70.70;;;;;;5031349;28;20435;-55
2023/03/30 00:43:18;;;;;;;10.50;3.40;;;11.50;71.10;;;;;;5029471;28;20427;-55
2023/03/30 00:45:43;;;;;;;15.97;4.30;;;11.40;71.70;;;;;;5029434;28;20438;-56
2023/03/30 00:48:22;;;;;;;11.80;3.30;;;11.30;72.00;;;;;;5029818;28;20184;-55
2023/03/30 00:50:53;;;;;;;8.80;3.30;;;11.30;72.20;;;;;;5029650;28;20175;-56
2023/03/30 00:53:27;;;;;;;12.33;3.93;;;11.20;72.50;;;;;;5026837;28;20453;-56
2023/03/30 00:55:54;;;;;;;13.73;4.23;;;11.20;72.80;;;;;;5028848;28;20454;-56
2023/03/30 00:58:21;;;;;;;17.27;3.90;;;11.20;73.20;;;;;;5024616;28;20416;-55
2023/03/30 01:00:47;;;;;;;12.10;4.10;;;11.20;73.70;;;;;;5023418;28;20517;-59
2023/03/30 01:03:36;;;;;;;12.40;3.73;;;11.10;74.30;;;;;;5023841;28;21109;-56
2023/03/30 01:06:06;;;;;;;16.83;3.93;;;11.10;75.10;;;;;;5028138;28;20199;-56
2023/03/30 01:08:33;;;;;;;13.73;4.37;;;11.00;75.70;;;;;;5029729;28;20802;-55
2023/03/30 01:11:00;;;;;;;8.70;3.53;;;11.00;76.60;;;;;;5026769;28;20446;-58
2023/03/30 01:13:28;;;;;;;10.13;3.70;;;11.00;77.50;;;;;;5029085;28;20411;-57
2023/03/30 01:16:12;;;;;;;11.30;3.53;;;11.00;78.00;;;;;;5026599;28;20663;-56
2023/03/30 01:19:17;;;;;;;8.70;3.47;;;10.90;78.30;;;;;;5027055;28;20403;-56
2023/03/30 01:22:07;;;;;;;12.23;3.93;;;10.90;79.50;;;;;;5026413;28;20437;-56
2023/03/30 01:25:04;;;;;;;15.70;3.87;;;10.90;79.70;;;;;;5027278;28;20477;-57
2023/03/30 01:27:44;;;;;;;11.07;3.40;;;10.90;80.80;;;;;;5023578;28;20516;-56
2023/03/30 01:30:31;;;;;;;11.03;3.53;;;10.90;81.70;;;;;;5028578;28;20797;-57
2023/03/30 01:33:05;;;;;;;17.53;4.20;;;10.90;81.60;;;;;;5027673;28;20525;-55
2023/03/30 01:35:40;;;;;;;13.40;3.50;;;10.90;82.00;;;;;;5023700;28;20450;-55
2023/03/30 01:38:23;;;;;;;13.30;4.00;;;10.90;82.50;;;;;;5026378;28;20426;-56
2023/03/30 01:41:08;;;;;;;10.23;3.80;;;10.90;83.30;;;;;;5033016;28;20434;-56
2023/03/30 01:43:50;;;;;;;11.63;4.40;;;10.90;84.70;;;;;;5032433;28;20466;-57
2023/03/30 01:46:24;;;;;;;16.00;3.80;;;10.90;85.50;;;;;;5034564;28;20446;-56
2023/03/30 01:49:03;;;;;;;14.57;3.80;;;10.90;86.00;;;;;;5034736;28;20427;-56
2023/03/30 01:51:37;;;;;;;11.73;3.90;;;10.90;87.10;;;;;;5034171;28;20529;-56
2023/03/30 01:54:08;;;;;;;14.63;4.03;;;10.90;86.50;;;;;;5028328;28;20417;-57
2023/03/30 01:56:40;;;;;;;9.13;3.47;;;11.00;86.10;;;;;;5034905;28;20868;-56
2023/03/30 01:59:32;;;;;;;15.13;3.90;;;11.00;85.00;;;;;;5034840;28;20452;-56
2023/03/30 02:02:01;;;;;;;20.17;3.70;;;11.10;83.90;;;;;;5026053;28;20443;-56
2023/03/30 02:04:30;;;;;;;16.03;3.17;;;11.10;83.10;;;;;;5033161;28;21116;-57
2023/03/30 02:07:00;;;;;;;20.53;3.80;;;11.20;82.00;;;;;;5034964;28;20879;-56
2023/03/30 02:09:28;;;;;;;13.10;3.60;;;11.30;80.60;;;;;;5034702;28;20489;-56
2023/03/30 02:11:55;;;;;;;29.83;4.60;;;11.30;79.30;;;;;;5033555;28;20445;-56
2023/03/30 02:14:27;;;;;;;14.30;3.20;;;11.40;78.50;;;;;;5031069;28;20410;-55
2023/03/30 02:17:02;;;;;;;21.00;4.30;;;11.50;79.40;;;;;;5033083;28;21086;-57
2023/03/30 02:19:29;;;;;;;13.43;4.03;;;11.50;81.80;;;;;;5024873;28;20434;-56
2023/03/30 02:21:55;;;;;;;16.97;3.20;;;11.60;87.60;;;;;;5032582;28;20434;-57
2023/03/30 02:24:26;;;;;;;12.87;4.10;;;11.60;92.10;;;;;;5035241;28;20516;-56
2023/03/30 02:26:53;;;;;;;13.90;4.73;;;11.50;94.90;;;;;;5033523;28;20442;-55
2023/03/30 02:29:21;;;;;;;16.60;3.73;;;11.50;97.90;;;;;;5031589;28;20510;-56
2023/03/30 02:31:49;;;;;;;17.47;4.23;;;11.50;99.50;;;;;;5030188;28;20473;-55
2023/03/30 02:34:27;;;;;;;24.00;4.50;;;11.40;99.90;;;;;;5034120;28;20438;-55
2023/03/30 02:37:37;;;;;;;37.27;5.00;;;11.40;99.90;;;;;;5031211;28;20473;-57
2023/03/30 02:40:22;;;;;;;17.23;4.37;;;11.40;99.90;;;;;;5032102;28;20492;-56
2023/03/30 02:43:09;;;;;;;15.40;3.63;;;11.30;99.90;;;;;;5034038;28;20438;-56
2023/03/30 02:45:42;;;;;;;17.63;5.40;;;11.20;99.90;;;;;;5033536;28;20489;-56
2023/03/30 02:48:36;;;;;;;17.87;5.03;;;11.20;99.90;;;;;;5030226;28;20437;-56
2023/03/30 02:51:04;;;;;;;11.20;3.77;;;11.10;99.90;;;;;;5028018;28;20427;-54
2023/03/30 02:54:00;;;;;;;13.80;3.47;;;11.10;99.90;;;;;;5034249;28;20418;-56
2023/03/30 02:57:15;;;;;;;11.47;4.60;;;11.00;99.90;;;;;;5031742;28;20451;-56
2023/03/30 03:00:16;;;;;;;13.13;4.50;;;11.00;99.90;;;;;;5013663;28;20464;-58
2023/03/30 03:02:48;;;;;;;8.23;4.00;;;10.90;99.90;;;;;;5021467;28;20946;-58
2023/03/30 03:05:15;;;;;;;13.37;3.93;;;10.90;99.90;;;;;;5037324;28;20501;-57
2023/03/30 03:07:41;;;;;;;13.77;3.50;;;10.90;99.90;;;;;;5043963;28;21124;-58
2023/03/30 03:10:07;;;;;;;16.10;4.10;;;10.80;99.90;;;;;;5034702;28;20439;-57
2023/03/30 03:12:34;;;;;;;10.70;3.40;;;10.80;99.90;;;;;;5037515;28;20188;-56
2023/03/30 03:15:04;;;;;;;19.50;5.60;;;10.70;99.90;;;;;;5036973;28;20429;-58
2023/03/30 03:17:33;;;;;;;14.77;4.07;;;10.70;99.90;;;;;;5036608;28;20454;-57
2023/03/30 03:20:03;;;;;;;9.83;3.83;;;10.60;99.90;;;;;;5033711;28;20426;-56
2023/03/30 03:22:30;;;;;;;19.30;5.27;;;10.60;99.90;;;;;;5035806;28;20786;-57
2023/03/30 03:24:55;;;;;;;20.40;4.40;;;10.60;99.90;;;;;;5035745;28;20574;-54
2023/03/30 03:27:21;;;;;;;15.23;4.60;;;10.50;99.90;;;;;;5035134;28;20462;-55
2023/03/30 03:29:46;;;;;;;11.30;4.43;;;10.40;99.90;;;;;;5037496;28;20226;-59
2023/03/30 03:32:12;;;;;;;15.70;3.80;;;10.40;99.90;;;;;;5037488;28;20168;-55
2023/03/30 03:34:38;;;;;;;15.87;4.83;;;10.30;99.90;;;;;;5029412;28;20196;-56
2023/03/30 03:37:04;;;;;;;10.87;3.97;;;10.30;99.90;;;;;;5038453;28;20196;-54
2023/03/30 03:39:30;;;;;;;14.80;4.30;;;10.30;99.90;;;;;;5037646;28;20442;-55
2023/03/30 03:41:56;;;;;;;18.70;4.87;;;10.20;99.90;;;;;;5037257;28;20442;-56
2023/03/30 03:44:22;;;;;;;13.20;4.63;;;10.20;99.90;;;;;;5032894;28;20466;-56
2023/03/30 03:46:47;;;;;;;16.10;4.33;;;10.20;99.90;;;;;;5035549;28;20204;-55
2023/03/30 03:49:13;;;;;;;13.73;4.60;;;10.20;99.90;;;;;;5038940;28;20187;-56
2023/03/30 03:51:38;;;;;;;14.70;5.30;;;10.20;99.90;;;;;;5038270;28;20266;-57
2023/03/30 03:54:04;;;;;;;18.23;4.30;;;10.20;99.90;;;;;;5019432;28;20199;-47
2023/03/30 03:56:30;;;;;;;21.67;4.70;;;10.10;99.90;;;;;;5020305;28;20203;-57
2023/03/30 03:58:56;;;;;;;15.60;5.60;;;10.10;99.90;;;;;;5031283;28;20255;-58
2023/03/30 04:01:21;;;;;;;8.93;4.30;;;10.10;99.90;;;;;;5026615;28;20188;-57
2023/03/30 04:03:47;;;;;;;19.77;5.40;;;10.00;99.90;;;;;;5022680;28;20608;-54
2023/03/30 04:06:13;;;;;;;18.47;4.30;;;10.10;99.90;;;;;;5036368;28;20223;-57
2023/03/30 04:08:38;;;;;;;17.07;6.20;;;10.00;99.90;;;;;;5035301;28;20172;-57
2023/03/30 04:11:10;;;;;;;17.70;4.60;;;10.10;99.90;;;;;;5032143;28;20661;-56
2023/03/30 04:13:37;;;;;;;12.47;4.20;;;10.00;99.90;;;;;;5029593;28;20263;-59
2023/03/30 04:16:03;;;;;;;28.90;5.00;;;10.00;99.90;;;;;;5033826;28;20557;-57
2023/03/30 04:18:32;;;;;;;12.33;3.90;;;9.90;99.90;;;;;;5033782;28;20454;-58
2023/03/30 04:21:01;;;;;;;16.57;3.97;;;9.90;99.90;;;;;;5023877;28;20439;-58
2023/03/30 04:23:30;;;;;;;15.47;4.23;;;9.90;99.90;;;;;;5020351;28;20439;-58
2023/03/30 04:26:06;;;;;;;13.33;4.47;;;9.90;99.90;;;;;;5018169;28;20485;-56
2023/03/30 04:28:34;;;;;;;17.07;4.80;;;9.90;99.90;;;;;;5022794;28;20434;-58
2023/03/30 04:31:04;;;;;;;23.33;4.80;;;9.90;99.90;;;;;;5023303;28;20508;-58
2023/03/30 04:33:33;;;;;;;11.57;4.20;;;9.80;99.90;;;;;;5025019;28;20439;-57
2023/03/30 04:36:00;;;;;;;9.23;5.70;;;9.90;99.90;;;;;;5017643;28;20465;-58
2023/03/30 04:38:26;;;;;;;10.27;4.47;;;9.80;99.90;;;;;;5024313;28;21017;-59
2023/03/30 04:40:53;;;;;;;16.23;4.90;;;9.80;99.90;;;;;;5019843;28;20454;-57
2023/03/30 04:43:20;;;;;;;16.17;5.90;;;9.80;99.90;;;;;;5020466;28;20446;-59
2023/03/30 04:45:54;;;;;;;15.77;4.67;;;9.80;99.90;;;;;;5019566;28;20467;-57
2023/03/30 04:48:21;;;;;;;11.93;4.30;;;9.80;99.90;;;;;;5020302;28;21207;-58
2023/03/30 04:50:48;;;;;;;15.93;4.63;;;9.80;99.90;;;;;;5013802;28;20463;-59
2023/03/30 04:53:15;;;;;;;13.57;5.50;;;9.70;99.90;;;;;;5029572;28;20821;-59
2023/03/30 04:55:41;;;;;;;13.80;5.30;;;9.70;99.90;;;;;;5024254;28;20462;-58
2023/03/30 04:58:10;;;;;;;22.07;5.23;;;9.60;99.90;;;;;;5020208;28;20449;-58
2023/03/30 05:00:36;;;;;;;19.60;5.50;;;9.60;99.90;;;;;;4998249;28;20508;-59
2023/03/30 05:03:03;;;;;;;14.77;4.97;;;9.60;99.90;;;;;;5024342;28;20438;-56
2023/03/30 05:05:29;;;;;;;19.87;5.77;;;9.60;99.90;;;;;;5022139;28;20470;-58
2023/03/30 05:07:55;;;;;;;15.33;4.63;;;9.50;99.90;;;;;;5025410;28;20426;-58
2023/03/30 05:10:20;;;;;;;15.33;4.30;;;9.50;99.90;;;;;;5018559;28;20438;-56
2023/03/30 05:12:47;;;;;;;12.87;4.87;;;9.50;99.90;;;;;;5015394;28;20263;-57
2023/03/30 05:15:13;;;;;;;14.80;5.37;;;9.50;99.90;;;;;;5024406;28;20750;-55
2023/03/30 05:17:39;;;;;;;21.97;5.83;;;9.50;99.90;;;;;;5014395;28;20446;-53
2023/03/30 05:20:07;;;;;;;18.13;6.00;;;9.50;99.90;;;;;;5024676;28;20183;-55
2023/03/30 05:22:34;;;;;;;15.07;4.90;;;9.50;99.90;;;;;;5021798;28;20282;-54
2023/03/30 05:25:00;;;;;;;15.87;5.23;;;9.50;99.90;;;;;;5026424;28;20890;-56
2023/03/30 05:27:25;;;;;;;16.63;5.70;;;9.50;99.90;;;;;;5013820;28;20541;-55
2023/03/30 05:29:51;;;;;;;12.47;5.50;;;9.50;99.90;;;;;;5018412;28;20522;-56
2023/03/30 05:32:17;;;;;;;16.10;5.70;;;9.60;99.90;;;;;;5014398;28;20179;-54
2023/03/30 05:34:43;;;;;;;30.43;8.60;;;9.50;99.90;;;;;;5021579;28;20947;-53
2023/03/30 05:37:09;;;;;;;16.97;7.17;;;9.50;99.90;;;;;;5026290;28;21021;-54
2023/03/30 05:39:35;;;;;;;16.10;5.80;;;9.50;99.90;;;;;;5024068;28;20191;-54
2023/03/30 05:42:01;;;;;;;13.57;5.40;;;9.50;99.90;;;;;;5016903;28;20255;-54
2023/03/30 05:44:26;;;;;;;23.40;5.57;;;9.60;99.90;;;;;;5021163;28;20218;-56
2023/03/30 05:46:52;;;;;;;30.33;6.10;;;9.50;99.90;;;;;;5018493;28;20538;-55
2023/03/30 05:49:18;;;;;;;23.93;5.70;;;9.50;99.90;;;;;;5024601;28;20168;-54
2023/03/30 05:51:43;;;;;;;20.60;6.00;;;9.60;99.90;;;;;;5013445;28;20270;-56
2023/03/30 05:54:12;;;;;;;24.10;6.23;;;9.60;99.90;;;;;;5019282;28;21894;-54
2023/03/30 05:56:41;;;;;;;15.90;6.47;;;9.60;99.90;;;;;;5028046;28;20276;-55
2023/03/30 05:59:07;;;;;;;14.80;6.57;;;9.60;99.90;;;;;;5032092;28;20494;-56
2023/03/30 06:01:33;;;;;;;17.80;6.43;;;9.60;99.90;;;;;;5032742;28;20450;-55
2023/03/30 06:03:59;;;;;;;16.70;5.90;;;9.60;99.90;;;;;;5026057;28;20465;-54
2023/03/30 06:06:25;;;;;;;16.03;5.47;;;9.60;99.90;;;;;;5029812;28;20254;-54
2023/03/30 06:08:51;;;;;;;17.07;5.90;;;9.60;99.90;;;;;;5029226;28;20476;-55
2023/03/30 06:11:17;;;;;;;14.20;6.17;;;9.60;99.90;;;;;;5020863;28;20517;-57
2023/03/30 06:13:42;;;;;;;15.97;4.97;;;9.70;99.90;;;;;;5030392;28;20263;-56
2023/03/30 06:16:08;;;;;;;16.50;5.03;;;9.70;99.90;;;;;;5027886;28;20190;-55
2023/03/30 06:18:34;;;;;;;16.40;5.40;;;9.70;99.90;;;;;;5032300;28;20191;-55
2023/03/30 06:21:05;;;;;;;14.67;5.03;;;9.70;99.90;;;;;;5027627;28;20530;-53
2023/03/30 06:23:32;;;;;;;16.40;5.90;;;9.70;99.90;;;;;;5029297;28;20195;-56
2023/03/30 06:25:58;;;;;;;20.07;6.13;;;9.70;99.90;;;;;;5027451;28;20450;-56
2023/03/30 06:28:24;;;;;;;13.67;5.73;;;9.70;99.90;;;;;;5022681;28;20978;-54
2023/03/30 06:30:50;;;;;;;15.00;6.30;;;9.70;99.90;;;;;;5026016;28;21092;-56
2023/03/30 06:33:17;;;;;;;19.90;6.43;;;9.70;99.90;;;;;;5030198;28;20180;-55
2023/03/30 06:35:47;;;;;;;19.93;6.90;;;9.70;99.90;;;;;;5030115;28;20508;-56
2023/03/30 06:38:13;;;;;;;28.37;7.57;;;9.70;99.90;;;;;;5032339;28;20450;-56
2023/03/30 06:40:39;;;;;;;25.20;7.47;;;9.70;99.90;;;;;;5033382;28;20422;-57
2023/03/30 06:43:06;;;;;;;26.33;9.97;;;9.70;99.90;;;;;;5034895;28;20501;-56
2023/03/30 06:45:32;;;;;;;21.47;8.37;;;9.80;99.90;;;;;;5033146;28;20229;-54
2023/03/30 06:47:58;;;;;;;18.17;6.37;;;9.80;99.90;;;;;;5035408;28;20426;-55
2023/03/30 06:50:23;;;;;;;18.47;5.93;;;9.80;99.90;;;;;;5033577;28;20431;-55
2023/03/30 06:52:49;;;;;;;16.43;4.80;;;9.80;99.90;;;;;;5032753;28;20629;-55
2023/03/30 06:55:15;;;;;;;28.73;6.50;;;9.80;99.90;;;;;;5032894;28;20175;-54
2023/03/30 06:57:40;;;;;;;18.37;7.50;;;9.80;99.90;;;;;;5035288;28;20255;-55
2023/03/30 07:00:13;;;;;;;17.10;8.20;;;9.80;99.90;;;;;;5030282;28;20192;-55
2023/03/30 07:02:40;;;;;;;14.97;6.83;;;9.80;99.90;;;;;;5035276;28;20179;-56
2023/03/30 07:05:06;;;;;;;16.60;7.53;;;9.90;99.90;;;;;;5028826;28;20483;-55
2023/03/30 07:07:33;;;;;;;23.83;7.17;;;9.90;99.90;;;;;;5034366;28;20480;-56
2023/03/30 07:09:58;;;;;;;18.93;7.20;;;9.90;99.90;;;;;;5032432;28;20429;-56
2023/03/30 07:12:24;;;;;;;15.03;7.00;;;10.00;99.90;;;;;;5029995;28;20999;-54
2023/03/30 07:14:49;;;;;;;18.20;8.23;;;10.00;99.90;;;;;;5026585;28;20186;-56
2023/03/30 07:17:15;;;;;;;21.20;8.50;;;10.10;99.90;;;;;;5033942;28;20208;-55
2023/03/30 07:19:41;;;;;;;23.73;8.87;;;10.20;99.90;;;;;;5033719;28;20233;-56
2023/03/30 07:22:07;;;;;;;27.03;10.37;;;10.30;99.90;;;;;;5031353;28;20222;-56
2023/03/30 07:24:32;;;;;;;30.37;7.77;;;10.30;99.90;;;;;;5031747;28;20211;-56
2023/03/30 07:26:58;;;;;;;26.43;8.07;;;10.50;99.90;;;;;;5030816;28;20199;-55
2023/03/30 07:29:25;;;;;;;26.47;7.70;;;10.60;99.90;;;;;;5033465;28;20171;-56
2023/03/30 07:31:51;;;;;;;24.40;7.63;;;10.80;99.90;;;;;;5033328;28;20453;-55
2023/03/30 07:34:17;;;;;;;20.90;5.27;;;11.00;99.90;;;;;;5034195;28;20430;-56
2023/03/30 07:36:42;;;;;;;24.40;5.80;;;11.10;99.90;;;;;;5031673;28;20677;-55
2023/03/30 07:39:09;;;;;;;17.07;6.27;;;11.20;99.90;;;;;;5035246;28;20306;-57
2023/03/30 07:41:35;;;;;;;22.83;6.10;;;11.20;99.90;;;;;;5033120;28;20434;-57
2023/03/30 07:44:01;;;;;;;20.03;6.30;;;11.30;99.90;;;;;;5029978;28;21003;-55
2023/03/30 07:46:26;;;;;;;18.77;6.13;;;11.30;99.90;;;;;;5033832;28;20200;-56
2023/03/30 07:48:52;;;;;;;16.80;6.50;;;11.40;99.90;;;;;;5035211;28;20184;-58
2023/03/30 07:51:19;;;;;;;14.47;5.87;;;11.50;99.90;;;;;;5030688;28;20918;-54
2023/03/30 07:53:46;;;;;;;21.30;5.50;;;11.50;99.90;;;;;;5025843;28;20867;-57
2023/03/30 07:56:12;;;;;;;17.73;6.57;;;11.60;99.90;;;;;;5026707;28;20942;-57
2023/03/30 07:58:38;;;;;;;18.97;4.47;;;11.60;99.90;;;;;;5031422;28;20435;-57
2023/03/30 08:01:04;;;;;;;26.37;5.80;;;11.60;99.90;;;;;;5030218;28;20183;-57
2023/03/30 08:03:30;;;;;;;20.80;7.03;;;11.70;99.90;;;;;;5027617;28;20426;-55
2023/03/30 08:05:59;;;;;;;13.97;6.00;;;11.70;99.90;;;;;;5032247;28;20291;-57
2023/03/30 08:08:26;;;;;;;18.40;6.70;;;11.70;99.90;;;;;;5028998;28;20497;-56
2023/03/30 08:10:52;;;;;;;16.80;7.07;;;11.80;99.90;;;;;;5028041;28;20502;-56
2023/03/30 08:13:18;;;;;;;21.80;7.60;;;11.90;99.90;;;;;;5030599;28;20446;-55
2023/03/30 08:15:45;;;;;;;18.93;7.70;;;11.90;99.90;;;;;;5032245;28;20234;-56
2023/03/30 08:18:11;;;;;;;25.03;7.23;;;12.00;99.90;;;;;;5028516;28;20442;-57
2023/03/30 08:20:38;;;;;;;17.57;7.23;;;12.00;99.90;;;;;;5028036;28;20884;-57
2023/03/30 08:23:05;;;;;;;15.13;6.30;;;12.10;99.90;;;;;;5024931;28;20496;-55
2023/03/30 08:25:31;;;;;;;20.83;7.60;;;12.10;99.90;;;;;;5031738;28;21020;-54
2023/03/30 08:27:57;;;;;;;22.27;7.00;;;12.10;99.90;;;;;;5035753;28;20423;-55
2023/03/30 08:30:23;;;;;;;25.67;6.90;;;12.00;99.90;;;;;;5033248;28;20500;-55
2023/03/30 08:32:50;;;;;;;22.03;6.60;;;12.00;99.90;;;;;;5029747;28;20861;-55
2023/03/30 08:35:16;;;;;;;13.23;7.03;;;12.00;99.90;;;;;;5033371;28;20180;-55
2023/03/30 08:37:42;;;;;;;22.33;6.70;;;12.00;99.90;;;;;;5029749;28;20453;-56
2023/03/30 08:40:11;;;;;;;18.40;5.87;;;12.10;99.90;;;;;;5031318;28;20190;-53
2023/03/30 08:42:49;;;;;;;18.27;7.13;;;12.10;99.90;;;;;;5029433;28;20732;-57
2023/03/30 08:45:15;;;;;;;23.97;6.77;;;12.20;99.90;;;;;;5032296;28;20454;-56
2023/03/30 08:47:47;;;;;;;15.00;5.60;;;12.30;99.90;;;;;;5034493;28;21043;-56
2023/03/30 08:50:17;;;;;;;12.60;4.63;;;12.40;99.90;;;;;;5026942;28;20477;-55
2023/03/30 08:52:44;;;;;;;26.80;7.40;;;12.50;99.90;;;;;;5027449;28;20442;-56
2023/03/30 08:55:42;;;;;;;17.13;6.00;;;12.60;99.90;;;;;;5030201;28;20597;-55
2023/03/30 08:58:31;;;;;;;24.70;7.10;;;12.70;99.90;;;;;;5028837;28;20458;-56
2023/03/30 09:01:26;;;;;;;11.47;5.47;;;12.70;99.90;;;;;;5031971;28;20514;-56
2023/03/30 09:03:54;;;;;;;13.83;4.50;;;12.80;99.90;;;;;;5021938;28;20427;-54
2023/03/30 09:06:45;;;;;;;20.13;4.90;;;12.80;99.90;;;;;;5035025;28;20454;-55
2023/03/30 09:09:14;;;;;;;24.97;5.03;;;12.70;99.90;;;;;;5030537;28;22299;-54
2023/03/30 09:11:41;;;;;;;11.83;4.00;;;12.70;99.90;;;;;;5030571;28;20439;-55
2023/03/30 09:14:15;;;;;;;15.83;4.10;;;12.60;99.90;;;;;;5031149;28;20965;-55
2023/03/30 09:16:51;;;;;;;20.67;4.87;;;12.60;99.90;;;;;;5029950;28;20458;-53
2023/03/30 09:19:32;;;;;;;14.63;4.67;;;12.50;99.90;;;;;;5034656;28;20791;-56
2023/03/30 09:21:59;;;;;;;19.63;4.50;;;12.50;99.90;;;;;;5030087;28;20466;-57
2023/03/30 09:24:26;;;;;;;25.13;5.20;;;12.40;99.90;;;;;;5031131;28;20450;-55
2023/03/30 09:27:01;;;;;;;23.33;5.87;;;12.40;99.90;;;;;;5028019;28;20967;-56
2023/03/30 09:29:48;;;;;;;20.70;5.00;;;12.30;99.90;;;;;;5032260;28;20425;-55
2023/03/30 09:32:31;;;;;;;15.63;4.90;;;12.20;99.90;;;;;;5028177;28;20437;-55
2023/03/30 09:35:25;;;;;;;19.10;4.60;;;12.10;99.90;;;;;;5031805;28;20445;-55
2023/03/30 09:37:51;;;;;;;20.10;5.00;;;11.90;99.90;;;;;;5029844;28;20511;-55
2023/03/30 09:40:25;;;;;;;15.83;4.93;;;11.80;99.90;;;;;;5032753;28;20772;-55
2023/03/30 09:43:08;;;;;;;15.47;4.77;;;11.70;99.90;;;;;;5030228;28;20175;-56
2023/03/30 09:45:35;;;;;;;20.67;4.90;;;11.60;99.90;;;;;;5029818;28;20589;-56
2023/03/30 09:48:07;;;;;;;12.80;7.27;;;11.50;99.90;;;;;;5028116;28;20510;-55
2023/03/30 09:50:43;;;;;;;13.17;5.50;;;11.50;99.90;;;;;;5030929;28;20431;-54
2023/03/30 09:53:25;;;;;;;9.80;4.70;;;11.40;99.90;;;;;;5029563;28;20926;-56
2023/03/30 09:56:09;;;;;;;14.67;5.23;;;11.40;99.90;;;;;;5026023;28;20478;-55
2023/03/30 09:58:35;;;;;;;13.90;5.30;;;11.30;99.90;;;;;;5021946;28;20844;-55
2023/03/30 10:01:11;;;;;;;13.80;4.93;;;11.30;99.90;;;;;;5027607;28;20446;-54
2023/03/30 10:03:38;;;;;;;13.70;7.00;;;11.30;99.90;;;;;;5025662;28;20495;-55
2023/03/30 10:06:06;;;;;;;18.87;5.63;;;11.30;99.90;;;;;;5022219;28;20573;-55
2023/03/30 10:08:35;;;;;;;14.87;5.00;;;11.30;99.90;;;;;;5023698;28;20985;-54
2023/03/30 10:11:04;;;;;;;22.43;5.67;;;11.30;99.90;;;;;;5015770;28;20439;-54
2023/03/30 10:13:34;;;;;;;12.37;5.23;;;11.30;99.90;;;;;;5025340;28;20951;-54
2023/03/30 10:16:28;;;;;;;15.80;5.90;;;11.30;99.90;;;;;;5014607;28;20812;-55
2023/03/30 10:18:58;;;;;;;15.40;6.00;;;11.30;99.90;;;;;;5028004;28;20442;-56
2023/03/30 10:21:28;;;;;;;15.57;5.87;;;11.30;99.90;;;;;;5023819;28;20430;-56
2023/03/30 10:24:21;;;;;;;14.83;5.33;;;11.40;99.90;;;;;;5027232;28;20438;-56
2023/03/30 10:26:55;;;;;;;15.60;5.77;;;11.50;99.90;;;;;;5025410;28;20466;-55
2023/03/30 10:29:24;;;;;;;18.90;6.00;;;11.50;99.90;;;;;;5014589;28;20446;-56
2023/03/30 10:32:09;;;;;;;14.93;7.17;;;11.50;99.90;;;;;;5022905;28;20457;-56
2023/03/30 10:34:39;;;;;;;23.47;5.90;;;11.60;99.90;;;;;;5026276;28;20500;-56
2023/03/30 10:37:25;;;;;;;15.10;6.00;;;11.60;99.90;;;;;;5022172;28;20458;-58
2023/03/30 10:39:51;;;;;;;15.20;5.90;;;11.60;99.90;;;;;;5031489;28;20430;-57
2023/03/30 10:42:22;;;;;;;15.70;6.67;;;11.70;99.90;;;;;;5020790;28;20426;-56
2023/03/30 10:44:55;;;;;;;17.10;6.40;;;11.60;99.90;;;;;;5027924;28;20484;-58
2023/03/30 10:47:39;;;;;;;19.13;8.27;;;11.60;99.90;;;;;;5019282;28;20485;-56
2023/03/30 10:50:14;;;;;;;11.67;5.63;;;11.60;99.90;;;;;;5029681;28;20426;-57
2023/03/30 10:52:57;;;;;;;15.07;5.73;;;11.50;99.90;;;;;;5021398;28;20437;-56
2023/03/30 10:55:30;;;;;;;13.37;4.53;;;11.50;99.90;;;;;;5021740;28;20913;-56
2023/03/30 10:57:56;;;;;;;9.70;5.00;;;11.50;99.90;;;;;;5024528;28;20441;-57
2023/03/30 11:00:37;;;;;;;11.10;5.37;;;11.40;99.90;;;;;;5023799;28;20438;-56
2023/03/30 11:03:19;;;;;;;14.60;5.30;;;11.50;99.90;;;;;;5018318;28;20184;-55
2023/03/30 11:05:51;;;;;;;12.03;5.27;;;11.50;99.90;;;;;;5015383;28;20979;-56
2023/03/30 11:08:36;;;;;;;10.90;5.83;;;11.50;99.90;;;;;;5017896;28;20447;-58
2023/03/30 11:11:04;;;;;;;12.00;5.70;;;11.60;99.90;;;;;;5016573;28;20803;-56
2023/03/30 11:13:35;;;;;;;13.10;5.70;;;11.60;99.90;;;;;;5024540;28;20450;-56
2023/03/30 11:16:07;;;;;;;11.87;6.40;;;11.60;99.90;;;;;;5017382;28;20800;-55
2023/03/30 11:19:01;;;;;;;12.67;5.17;;;11.70;99.90;;;;;;5025066;28;20453;-55
2023/03/30 11:21:33;;;;;;;12.30;5.80;;;11.70;99.90;;;;;;5024714;28;20434;-55
2023/03/30 11:24:06;;;;;;;15.10;5.87;;;11.80;99.90;;;;;;5020953;28;20900;-55
2023/03/30 11:27:02;;;;;;;8.40;4.83;;;11.80;99.90;;;;;;5022279;28;20984;-57
2023/03/30 11:29:42;;;;;;;11.80;6.20;;;11.80;99.90;;;;;;5025755;28;20419;-56
2023/03/30 11:32:33;;;;;;;10.70;6.73;;;11.70;99.90;;;;;;5021459;28;20426;-55
2023/03/30 11:35:16;;;;;;;14.60;5.07;;;11.70;99.90;;;;;;5021698;28;20431;-57
2023/03/30 11:37:51;;;;;;;16.17;6.60;;;11.70;99.90;;;;;;5019492;28;20442;-57
2023/03/30 11:40:26;;;;;;;11.00;5.60;;;11.70;99.90;;;;;;5023923;28;20521;-55
2023/03/30 11:42:52;;;;;;;19.73;5.73;;;11.70;99.90;;;;;;5023207;28;20426;-55
2023/03/30 11:45:37;;;;;;;13.13;5.80;;;11.60;99.90;;;;;;5020208;28;20530;-56
2023/03/30 11:48:23;;;;;;;7.13;4.70;;;11.70;99.90;;;;;;5024085;28;20434;-56
2023/03/30 11:50:57;;;;;;;11.90;6.43;;;11.70;99.90;;;;;;5032491;28;20448;-54
2023/03/30 11:53:33;;;;;;;12.00;4.83;;;11.70;99.90;;;;;;5023069;28;20510;-55
2023/03/30 11:56:36;;;;;;;15.50;6.27;;;11.70;99.90;;;;;;5023464;28;21100;-56
2023/03/30 11:59:12;;;;;;;13.67;5.57;;;11.80;99.90;;;;;;5021722;28;20439;-55
2023/03/30 12:01:54;;;;;;;13.70;6.00;;;11.80;99.90;;;;;;5021488;28;21012;-54
2023/03/30 12:04:44;;;;;;;15.10;4.83;;;11.80;99.90;;;;;;5022271;28;20554;-56
2023/03/30 12:07:27;;;;;;;10.90;5.50;;;11.80;99.90;;;;;;5023371;28;20451;-54
2023/03/30 12:09:57;;;;;;;8.97;4.90;;;11.70;99.90;;;;;;5021439;28;20442;-54
2023/03/30 12:12:38;;;;;;;9.93;3.93;;;11.70;99.90;;;;;;5018089;28;20618;-53
2023/03/30 12:15:18;;;;;;;7.80;3.80;;;11.60;99.90;;;;;;5013557;28;20979;-54
2023/03/30 12:18:01;;;;;;;6.60;4.00;;;11.50;99.90;;;;;;5015097;28;20439;-55
2023/03/30 12:20:34;;;;;;;12.10;4.03;;;11.50;99.90;;;;;;5020600;28;20460;-56
2023/03/30 12:23:02;;;;;;;11.97;4.07;;;11.60;99.90;;;;;;5019188;28;20529;-55
2023/03/30 12:25:49;;;;;;;8.40;3.50;;;11.80;99.90;;;;;;5010172;28;20903;-56
2023/03/30 12:28:18;;;;;;;10.27;3.67;;;12.00;99.90;;;;;;5021310;28;20435;-56
2023/03/30 12:31:04;;;;;;;7.40;3.70;;;12.10;99.90;;;;;;5018432;28;20441;-55
2023/03/30 12:33:46;;;;;;;11.23;3.60;;;12.20;99.90;;;;;;5016284;28;20446;-56
2023/03/30 12:36:30;;;;;;;5.87;4.07;;;12.20;99.90;;;;;;5014222;28;20455;-57
2023/03/30 12:39:00;;;;;;;7.50;3.80;;;12.20;99.90;;;;;;5020619;28;20806;-55
2023/03/30 12:41:28;;;;;;;6.73;3.70;;;12.30;99.90;;;;;;5014820;28;20507;-56
2023/03/30 12:44:17;;;;;;;8.30;3.80;;;12.30;99.90;;;;;;5018386;28;20458;-56
2023/03/30 12:47:17;;;;;;;7.07;4.10;;;12.40;99.90;;;;;;5017423;28;20500;-56
2023/03/30 12:50:13;;;;;;;7.70;4.10;;;12.50;99.90;;;;;;5015748;28;20597;-56
2023/03/30 12:53:02;;;;;;;10.53;4.17;;;12.40;99.90;;;;;;5020409;28;20453;-57
2023/03/30 12:55:52;;;;;;;6.90;3.73;;;12.50;99.90;;;;;;5021580;28;20462;-57
2023/03/30 12:58:41;;;;;;;8.53;3.80;;;12.50;99.90;;;;;;5017547;28;20435;-57
2023/03/30 13:01:31;;;;;;;10.10;3.77;;;12.70;99.90;;;;;;5018520;28;20438;-55
2023/03/30 13:04:04;;;;;;;13.73;4.47;;;12.70;99.90;;;;;;5019707;28;20441;-57
2023/03/30 13:06:31;;;;;;;7.40;3.63;;;12.80;99.90;;;;;;5014198;28;20462;-55